< Typhoon 198511 1985 Season Typhoon 198513 >
Typhoon 198512 (ODESSA)
General InformationTrack Information on Google MapsDetailed Wind InformationList of All Images || NewsDisaster Info.ResourceGoogle EarthGE AnimationAtom FeedGeoJSON
Detalied Best Track (Time Zone = UTC)
Year Month Day Hour Lat. Long. Pressure (hPa) Wind (kt) Class Image Chart
1985 8 22 06 19.0 141.0 1004 0 2 Image Chart
1985 8 22 12 19.0 141.0 1004 0 2 Image Chart
1985 8 22 18 19.0 141.0 1004 0 2 Image Chart
1985 8 23 00 18.5 141.5 1004 0 2 Image Chart
1985 8 23 06 18.5 141.5 1004 0 2 Image Chart
1985 8 23 12 18.0 142.0 1004 0 2 Image Chart
1985 8 23 18 17.5 142.5 1002 0 2 Image Chart
1985 8 24 00 17.0 143.0 998 35 3 Image Chart
1985 8 24 06 17.5 143.4 994 40 3 Image Chart
1985 8 24 12 18.2 143.8 992 50 4 Image Chart
1985 8 24 18 19.5 144.0 990 50 4 Image Chart
1985 8 25 00 20.9 143.9 985 65 5 Image Chart
1985 8 25 06 22.0 143.5 980 70 5 Image Chart
1985 8 25 12 23.5 143.0 980 70 5 Image Chart
1985 8 25 18 24.2 142.8 980 70 5 Image Chart
1985 8 26 00 25.0 142.5 975 75 5 Image Chart
1985 8 26 06 26.0 142.3 975 75 5 Image Chart
1985 8 26 12 26.9 142.1 970 75 5 Image Chart
1985 8 26 18 27.5 141.4 965 75 5 Image Chart
1985 8 27 00 27.9 141.2 965 75 5 Image Chart
1985 8 27 06 28.2 140.8 965 75 5 Image Chart
1985 8 27 12 28.2 140.1 965 75 5 Image Chart
1985 8 27 18 28.1 139.4 965 75 5 Image Chart
1985 8 28 00 28.2 138.7 965 75 5 Image Chart
1985 8 28 06 28.2 137.9 965 75 5 Image Chart
1985 8 28 12 28.2 137.0 960 80 5 Image Chart
1985 8 28 18 28.5 136.0 960 80 5 Image Chart
1985 8 29 00 29.0 134.9 955 80 5 Image Chart
1985 8 29 06 29.6 133.6 955 80 5 Image Chart
1985 8 29 12 30.0 131.8 960 75 5 Image Chart
1985 8 29 18 30.3 129.8 965 70 5 Image Chart
1985 8 30 00 30.4 127.9 965 70 5 Image Chart
1985 8 30 06 30.3 126.5 965 70 5 Image Chart
1985 8 30 12 30.0 125.7 975 75 5 Image Chart
1985 8 30 18 29.5 125.6 975 60 4 Image Chart
1985 8 31 00 29.8 126.1 980 55 4 Image Chart
1985 8 31 06 31.0 127.7 980 55 4 Image Chart
1985 8 31 12 32.6 128.8 985 55 4 Image Chart
1985 8 31 18 34.1 129.9 990 50 4 Image Chart
1985 9 1 00 35.4 131.7 992 45 3 Image Chart
1985 9 1 06 36.6 134.1 998 0 2 Image Chart
1985 9 1 12 37.5 136.5 1004 0 2 Image Chart
1985 9 1 18 37.5 140.0 1008 0 2 Image Chart
1985 9 2 00 37.0 143.0 1012 0 2 Image Chart
Japan Meteorological Agency Best Track Data | Correction Date : 1992-10-21
< Typhoon 198511 1985 Season Typhoon 198513 >

Help